San Francisco, California
Current Conditions -  °F | °C
As of 11:56 AM on Friday 19 Dec 2014 (Local Time) from KSFO Reporting Station
Overcast Overcast  
Wind Chill: 14°   Ceiling: 2200
Heat Index: 14°   Visibility: 10mi
Dew Point: 14°   Wind: 5mph
Humidity: 97%   Direction: 120°ESE
Pressure: 30.13"   Gusts: NA
Location:  37.78°N, 122.42°W
Report Text: KSFO 191956Z 12004KT 10SM FEW009 BKN022 OVC027 14/14 A3013 RMK AO2 RAE42 SLP202 P0004 T01440139
Loading
Personal Weather Stations






























Interactive Weather Map New forecast layout! Learn more

10-Day Weather Forecast

Advertisements
Track Severe Weather on mobile